sensor_id;sensor_type;location;lat;lon;timestamp;pressure;altitude;pressure_sealevel;temperature;humidity
66801;BME280;53703;50.326;19.122;2023-02-17T00:00:24;99233.44;;;17.40;42.44
66801;BME280;53703;50.326;19.122;2023-02-17T00:03:25;99231.02;;;17.35;42.59
66801;BME280;53703;50.326;19.122;2023-02-17T00:06:21;99236.32;;;17.35;42.54
66801;BME280;53703;50.326;19.122;2023-02-17T00:09:15;99232.91;;;17.33;42.62
66801;BME280;53703;50.326;19.122;2023-02-17T00:12:18;99233.02;;;17.35;42.49
66801;BME280;53703;50.326;19.122;2023-02-17T00:15:12;99235.54;;;17.34;42.51
66801;BME280;53703;50.326;19.122;2023-02-17T00:18:06;99232.06;;;17.35;42.39
66801;BME280;53703;50.326;19.122;2023-02-17T00:21:00;99229.25;;;17.36;42.30
66801;BME280;53703;50.326;19.122;2023-02-17T00:23:55;99228.06;;;17.32;42.33
66801;BME280;53703;50.326;19.122;2023-02-17T00:26:49;99220.96;;;17.30;42.40
66801;BME280;53703;50.326;19.122;2023-02-17T00:29:43;99225.73;;;17.27;42.36
66801;BME280;53703;50.326;19.122;2023-02-17T00:32:38;99225.25;;;17.24;42.42
66801;BME280;53703;50.326;19.122;2023-02-17T00:35:32;99223.02;;;17.24;42.34
66801;BME280;53703;50.326;19.122;2023-02-17T00:38:27;99222.23;;;17.24;42.37
66801;BME280;53703;50.326;19.122;2023-02-17T00:41:22;99215.14;;;17.28;42.21
66801;BME280;53703;50.326;19.122;2023-02-17T00:44:20;99210.73;;;17.28;42.35
66801;BME280;53703;50.326;19.122;2023-02-17T00:47:14;99208.15;;;17.24;42.18
66801;BME280;53703;50.326;19.122;2023-02-17T00:50:10;99206.16;;;17.22;42.20
66801;BME280;53703;50.326;19.122;2023-02-17T00:53:03;99208.98;;;17.21;42.32
66801;BME280;53703;50.326;19.122;2023-02-17T00:55:57;99213.77;;;17.23;42.21
66801;BME280;53703;50.326;19.122;2023-02-17T00:58:51;99207.34;;;17.26;42.23
66801;BME280;53703;50.326;19.122;2023-02-17T01:01:45;99208.47;;;17.25;42.34
66801;BME280;53703;50.326;19.122;2023-02-17T01:04:39;99207.04;;;17.26;42.26
66801;BME280;53703;50.326;19.122;2023-02-17T01:07:32;99202.23;;;17.26;42.45
66801;BME280;53703;50.326;19.122;2023-02-17T01:10:29;99191.83;;;17.24;42.33
66801;BME280;53703;50.326;19.122;2023-02-17T01:13:22;99187.70;;;17.25;42.40
66801;BME280;53703;50.326;19.122;2023-02-17T01:16:22;99185.27;;;17.28;42.22
66801;BME280;53703;50.326;19.122;2023-02-17T01:19:18;99183.62;;;17.26;42.37
66801;BME280;53703;50.326;19.122;2023-02-17T01:22:12;99185.64;;;17.25;42.37
66801;BME280;53703;50.326;19.122;2023-02-17T01:25:07;99180.70;;;17.24;42.31
66801;BME280;53703;50.326;19.122;2023-02-17T01:28:01;99177.64;;;17.24;42.49
66801;BME280;53703;50.326;19.122;2023-02-17T01:30:55;99176.80;;;17.23;42.35
66801;BME280;53703;50.326;19.122;2023-02-17T01:33:49;99178.39;;;17.23;42.34
66801;BME280;53703;50.326;19.122;2023-02-17T01:36:43;99178.14;;;17.25;42.45
66801;BME280;53703;50.326;19.122;2023-02-17T01:39:36;99179.54;;;17.23;42.54
66801;BME280;53703;50.326;19.122;2023-02-17T01:42:30;99178.96;;;17.22;42.44
66801;BME280;53703;50.326;19.122;2023-02-17T01:45:52;99174.41;;;17.21;42.35
66801;BME280;53703;50.326;19.122;2023-02-17T01:48:49;99179.41;;;17.17;42.45
66801;BME280;53703;50.326;19.122;2023-02-17T01:51:44;99176.16;;;17.17;42.41
66801;BME280;53703;50.326;19.122;2023-02-17T01:54:45;99175.00;;;17.21;42.40
66801;BME280;53703;50.326;19.122;2023-02-17T01:57:42;99172.64;;;17.20;42.44
66801;BME280;53703;50.326;19.122;2023-02-17T02:00:37;99170.59;;;17.20;42.48
66801;BME280;53703;50.326;19.122;2023-02-17T02:03:34;99171.31;;;17.20;42.44
66801;BME280;53703;50.326;19.122;2023-02-17T02:06:30;99174.52;;;17.19;42.47
66801;BME280;53703;50.326;19.122;2023-02-17T02:09:32;99175.48;;;17.16;42.57
66801;BME280;53703;50.326;19.122;2023-02-17T02:12:49;99174.40;;;17.16;42.51
66801;BME280;53703;50.326;19.122;2023-02-17T02:16:10;99172.89;;;17.14;42.63
66801;BME280;53703;50.326;19.122;2023-02-17T02:19:08;99170.45;;;17.14;42.74
66801;BME280;53703;50.326;19.122;2023-02-17T02:26:37;99165.05;;;17.19;42.67
66801;BME280;53703;50.326;19.122;2023-02-17T02:33:24;99159.23;;;17.17;42.62
66801;BME280;53703;50.326;19.122;2023-02-17T02:36:26;99154.37;;;17.20;42.59
66801;BME280;53703;50.326;19.122;2023-02-17T02:39:23;99148.58;;;17.19;42.55
66801;BME280;53703;50.326;19.122;2023-02-17T02:42:22;99145.67;;;17.19;42.63
66801;BME280;53703;50.326;19.122;2023-02-17T02:45:18;99150.04;;;17.16;42.72
66801;BME280;53703;50.326;19.122;2023-02-17T02:48:12;99150.79;;;17.15;42.65
66801;BME280;53703;50.326;19.122;2023-02-17T02:51:42;99141.94;;;17.13;42.70
66801;BME280;53703;50.326;19.122;2023-02-17T02:54:49;99138.90;;;17.11;42.57
66801;BME280;53703;50.326;19.122;2023-02-17T02:57:55;99135.23;;;17.12;42.62
66801;BME280;53703;50.326;19.122;2023-02-17T03:01:00;99141.08;;;17.09;42.64
66801;BME280;53703;50.326;19.122;2023-02-17T03:04:06;99132.18;;;17.13;43.23
66801;BME280;53703;50.326;19.122;2023-02-17T03:07:07;99136.55;;;17.10;42.59
66801;BME280;53703;50.326;19.122;2023-02-17T03:10:04;99126.80;;;17.10;42.54
66801;BME280;53703;50.326;19.122;2023-02-17T03:12:58;99119.88;;;17.07;42.75
66801;BME280;53703;50.326;19.122;2023-02-17T03:15:53;99111.57;;;17.08;42.61
66801;BME280;53703;50.326;19.122;2023-02-17T03:18:47;99119.46;;;17.06;42.64
66801;BME280;53703;50.326;19.122;2023-02-17T03:21:48;99107.98;;;17.05;42.50
66801;BME280;53703;50.326;19.122;2023-02-17T03:24:42;99108.31;;;17.05;42.55
66801;BME280;53703;50.326;19.122;2023-02-17T03:27:39;99112.58;;;17.04;42.53
66801;BME280;53703;50.326;19.122;2023-02-17T03:30:32;99111.45;;;17.03;42.59
66801;BME280;53703;50.326;19.122;2023-02-17T03:33:27;99112.41;;;17.02;42.47
66801;BME280;53703;50.326;19.122;2023-02-17T03:36:21;99115.76;;;17.03;42.51
66801;BME280;53703;50.326;19.122;2023-02-17T03:39:15;99118.55;;;17.02;42.35
66801;BME280;53703;50.326;19.122;2023-02-17T03:42:09;99119.02;;;17.02;42.43
66801;BME280;53703;50.326;19.122;2023-02-17T03:45:03;99122.09;;;16.99;42.56
66801;BME280;53703;50.326;19.122;2023-02-17T03:47:57;99121.98;;;17.01;42.44
66801;BME280;53703;50.326;19.122;2023-02-17T03:50:50;99121.15;;;16.98;42.54
66801;BME280;53703;50.326;19.122;2023-02-17T03:53:45;99118.68;;;16.97;42.57
66801;BME280;53703;50.326;19.122;2023-02-17T03:56:38;99114.02;;;16.98;42.54
66801;BME280;53703;50.326;19.122;2023-02-17T03:59:32;99109.02;;;16.98;42.51
66801;BME280;53703;50.326;19.122;2023-02-17T04:02:26;99103.67;;;16.96;42.45
66801;BME280;53703;50.326;19.122;2023-02-17T04:05:20;99112.98;;;16.95;42.54
66801;BME280;53703;50.326;19.122;2023-02-17T04:08:14;99113.03;;;16.94;42.61
66801;BME280;53703;50.326;19.122;2023-02-17T04:11:09;99100.98;;;16.96;42.44
66801;BME280;53703;50.326;19.122;2023-02-17T04:14:03;99096.02;;;16.94;42.52
66801;BME280;53703;50.326;19.122;2023-02-17T04:16:57;99094.89;;;16.93;42.50
66801;BME280;53703;50.326;19.122;2023-02-17T04:19:51;99088.41;;;16.93;42.42
66801;BME280;53703;50.326;19.122;2023-02-17T04:22:47;99092.98;;;16.91;42.50
66801;BME280;53703;50.326;19.122;2023-02-17T04:25:41;99099.36;;;16.91;42.35
66801;BME280;53703;50.326;19.122;2023-02-17T04:28:36;99093.81;;;16.90;42.45
66801;BME280;53703;50.326;19.122;2023-02-17T04:31:30;99096.48;;;16.89;42.35
66801;BME280;53703;50.326;19.122;2023-02-17T04:34:24;99096.94;;;16.89;42.47
66801;BME280;53703;50.326;19.122;2023-02-17T04:37:18;99094.82;;;16.88;42.47
66801;BME280;53703;50.326;19.122;2023-02-17T04:40:14;99095.13;;;16.85;42.29
66801;BME280;53703;50.326;19.122;2023-02-17T04:43:07;99092.05;;;16.82;42.46
66801;BME280;53703;50.326;19.122;2023-02-17T04:46:01;99093.80;;;16.82;42.47
66801;BME280;53703;50.326;19.122;2023-02-17T04:48:56;99086.40;;;16.86;42.35
66801;BME280;53703;50.326;19.122;2023-02-17T04:51:50;99081.83;;;16.87;42.37
66801;BME280;53703;50.326;19.122;2023-02-17T04:54:44;99078.30;;;16.84;42.48
66801;BME280;53703;50.326;19.122;2023-02-17T04:57:37;99074.13;;;16.86;42.46
66801;BME280;53703;50.326;19.122;2023-02-17T05:00:31;99070.47;;;16.81;42.45
66801;BME280;53703;50.326;19.122;2023-02-17T05:03:25;99071.95;;;16.81;42.52
66801;BME280;53703;50.326;19.122;2023-02-17T05:06:19;99060.44;;;16.83;42.51
66801;BME280;53703;50.326;19.122;2023-02-17T05:09:13;99055.73;;;16.81;42.55
66801;BME280;53703;50.326;19.122;2023-02-17T05:12:07;99051.13;;;16.82;42.60
66801;BME280;53703;50.326;19.122;2023-02-17T05:15:01;99040.82;;;16.82;42.57
66801;BME280;53703;50.326;19.122;2023-02-17T05:17:55;99040.67;;;16.79;42.64
66801;BME280;53703;50.326;19.122;2023-02-17T05:20:48;99040.19;;;16.79;42.64
66801;BME280;53703;50.326;19.122;2023-02-17T05:23:42;99042.08;;;16.79;42.57
66801;BME280;53703;50.326;19.122;2023-02-17T05:26:36;99045.52;;;16.76;42.56
66801;BME280;53703;50.326;19.122;2023-02-17T05:29:30;99038.81;;;16.74;42.70
66801;BME280;53703;50.326;19.122;2023-02-17T05:32:24;99036.70;;;16.74;42.61
66801;BME280;53703;50.326;19.122;2023-02-17T05:35:18;99037.03;;;16.74;42.60
66801;BME280;53703;50.326;19.122;2023-02-17T05:38:11;99037.27;;;16.70;43.07
66801;BME280;53703;50.326;19.122;2023-02-17T05:41:06;99036.36;;;16.71;43.10
66801;BME280;53703;50.326;19.122;2023-02-17T05:44:00;99040.63;;;16.74;42.90
66801;BME280;53703;50.326;19.122;2023-02-17T05:46:53;99045.91;;;16.76;42.75
66801;BME280;53703;50.326;19.122;2023-02-17T05:49:47;99056.28;;;16.75;42.63
66801;BME280;53703;50.326;19.122;2023-02-17T05:52:41;99052.77;;;16.72;42.64
66801;BME280;53703;50.326;19.122;2023-02-17T05:55:35;99047.97;;;16.70;42.77
66801;BME280;53703;50.326;19.122;2023-02-17T05:58:29;99038.77;;;16.66;42.72
66801;BME280;53703;50.326;19.122;2023-02-17T06:01:23;99033.80;;;16.64;42.72
66801;BME280;53703;50.326;19.122;2023-02-17T06:04:17;99030.84;;;16.69;42.66
66801;BME280;53703;50.326;19.122;2023-02-17T06:07:11;99021.45;;;16.68;42.54
66801;BME280;53703;50.326;19.122;2023-02-17T06:10:06;99021.45;;;16.68;42.51
66801;BME280;53703;50.326;19.122;2023-02-17T06:12:50;99020.73;;;16.66;42.47
66801;BME280;53703;50.326;19.122;2023-02-17T06:15:44;99026.20;;;16.65;42.63
66801;BME280;53703;50.326;19.122;2023-02-17T06:18:38;99025.05;;;16.64;42.53
66801;BME280;53703;50.326;19.122;2023-02-17T06:21:31;99018.54;;;16.63;42.52
66801;BME280;53703;50.326;19.122;2023-02-17T06:24:25;99013.09;;;16.66;42.45
66801;BME280;53703;50.326;19.122;2023-02-17T06:27:19;99014.67;;;16.66;43.07
66801;BME280;53703;50.326;19.122;2023-02-17T06:30:15;99021.55;;;16.65;42.89
66801;BME280;53703;50.326;19.122;2023-02-17T06:33:09;99018.85;;;16.68;42.83
66801;BME280;53703;50.326;19.122;2023-02-17T06:36:03;99022.42;;;16.71;42.84
66801;BME280;53703;50.326;19.122;2023-02-17T06:38:57;99025.27;;;16.75;42.70
66801;BME280;53703;50.326;19.122;2023-02-17T06:41:51;99019.05;;;16.66;42.83
66801;BME280;53703;50.326;19.122;2023-02-17T06:44:45;99021.48;;;16.59;42.81
66801;BME280;53703;50.326;19.122;2023-02-17T06:47:39;99018.46;;;16.61;42.82
66801;BME280;53703;50.326;19.122;2023-02-17T06:50:33;99019.26;;;16.66;42.68
66801;BME280;53703;50.326;19.122;2023-02-17T06:53:27;99018.40;;;16.61;42.83
66801;BME280;53703;50.326;19.122;2023-02-17T06:56:20;99015.45;;;16.68;42.66
66801;BME280;53703;50.326;19.122;2023-02-17T06:59:15;99007.30;;;16.69;42.58
66801;BME280;53703;50.326;19.122;2023-02-17T07:02:10;98996.38;;;16.62;42.76
66801;BME280;53703;50.326;19.122;2023-02-17T07:05:05;99002.05;;;16.62;42.71
66801;BME280;53703;50.326;19.122;2023-02-17T07:08:00;98999.76;;;16.59;42.64
66801;BME280;53703;50.326;19.122;2023-02-17T07:10:54;98999.14;;;16.60;42.74
66801;BME280;53703;50.326;19.122;2023-02-17T07:13:48;98997.30;;;16.57;42.70
66801;BME280;53703;50.326;19.122;2023-02-17T07:16:42;98997.59;;;16.54;42.70
66801;BME280;53703;50.326;19.122;2023-02-17T07:19:36;99003.97;;;16.55;43.11
66801;BME280;53703;50.326;19.122;2023-02-17T07:22:30;99011.39;;;16.61;43.63
66801;BME280;53703;50.326;19.122;2023-02-17T07:25:23;99017.77;;;16.81;43.09
66801;BME280;53703;50.326;19.122;2023-02-17T07:28:17;99021.74;;;16.90;43.08
66801;BME280;53703;50.326;19.122;2023-02-17T07:31:14;99021.04;;;16.90;43.05
66801;BME280;53703;50.326;19.122;2023-02-17T07:34:08;99018.21;;;16.84;44.78
66801;BME280;53703;50.326;19.122;2023-02-17T07:37:02;99009.34;;;16.47;45.01
66801;BME280;53703;50.326;19.122;2023-02-17T07:39:56;99007.48;;;16.42;44.74
66801;BME280;53703;50.326;19.122;2023-02-17T07:42:50;98999.52;;;16.44;44.75
66801;BME280;53703;50.326;19.122;2023-02-17T07:45:44;98998.27;;;16.50;45.20
66801;BME280;53703;50.326;19.122;2023-02-17T07:48:38;98988.86;;;16.45;44.90
66801;BME280;53703;50.326;19.122;2023-02-17T07:51:32;98989.65;;;16.39;44.95
66801;BME280;53703;50.326;19.122;2023-02-17T07:54:26;98995.59;;;16.44;45.28
66801;BME280;53703;50.326;19.122;2023-02-17T07:57:20;98991.06;;;16.47;44.55
66801;BME280;53703;50.326;19.122;2023-02-17T08:00:16;98984.51;;;16.40;44.15
66801;BME280;53703;50.326;19.122;2023-02-17T08:03:10;98978.95;;;16.43;44.04
66801;BME280;53703;50.326;19.122;2023-02-17T08:06:07;98969.19;;;16.39;44.08
66801;BME280;53703;50.326;19.122;2023-02-17T08:09:01;98976.11;;;16.41;43.90
66801;BME280;53703;50.326;19.122;2023-02-17T08:12:15;98968.59;;;16.40;43.86
66801;BME280;53703;50.326;19.122;2023-02-17T08:15:46;98963.16;;;16.40;43.73
66801;BME280;53703;50.326;19.122;2023-02-17T08:18:40;98965.98;;;16.38;43.78
66801;BME280;53703;50.326;19.122;2023-02-17T08:21:34;98967.20;;;16.33;44.38
66801;BME280;53703;50.326;19.122;2023-02-17T08:24:28;98968.86;;;16.31;44.51
66801;BME280;53703;50.326;19.122;2023-02-17T08:27:21;98967.25;;;16.29;44.80
66801;BME280;53703;50.326;19.122;2023-02-17T08:30:16;98964.55;;;16.32;44.87
66801;BME280;53703;50.326;19.122;2023-02-17T08:33:09;98967.10;;;16.34;44.77
66801;BME280;53703;50.326;19.122;2023-02-17T08:36:11;98967.52;;;16.37;44.85
66801;BME280;53703;50.326;19.122;2023-02-17T08:39:06;98969.75;;;16.36;45.23
66801;BME280;53703;50.326;19.122;2023-02-17T08:42:00;98971.46;;;16.29;45.66
66801;BME280;53703;50.326;19.122;2023-02-17T08:44:54;98966.34;;;16.29;44.64
66801;BME280;53703;50.326;19.122;2023-02-17T08:47:48;98970.91;;;16.29;44.83
66801;BME280;53703;50.326;19.122;2023-02-17T08:50:42;98972.11;;;16.28;44.65
66801;BME280;53703;50.326;19.122;2023-02-17T08:53:39;98966.63;;;16.30;44.49
66801;BME280;53703;50.326;19.122;2023-02-17T08:56:34;98959.31;;;16.21;44.67
66801;BME280;53703;50.326;19.122;2023-02-17T08:59:29;98955.23;;;16.23;44.89
66801;BME280;53703;50.326;19.122;2023-02-17T09:02:23;98949.08;;;16.29;44.85
66801;BME280;53703;50.326;19.122;2023-02-17T09:05:17;98948.02;;;16.24;44.86
66801;BME280;53703;50.326;19.122;2023-02-17T09:08:11;98952.88;;;16.25;44.33
66801;BME280;53703;50.326;19.122;2023-02-17T09:11:05;98958.40;;;16.22;44.91
66801;BME280;53703;50.326;19.122;2023-02-17T09:14:01;98954.13;;;16.29;44.65
66801;BME280;53703;50.326;19.122;2023-02-17T09:16:58;98957.80;;;16.26;44.46
66801;BME280;53703;50.326;19.122;2023-02-17T09:19:52;98951.02;;;16.24;44.75
66801;BME280;53703;50.326;19.122;2023-02-17T09:22:46;98950.69;;;16.31;44.72
66801;BME280;53703;50.326;19.122;2023-02-17T09:25:31;98945.89;;;16.37;44.03
66801;BME280;53703;50.326;19.122;2023-02-17T09:28:17;98938.10;;;16.29;44.06
66801;BME280;53703;50.326;19.122;2023-02-17T09:31:14;98936.05;;;16.27;44.76
66801;BME280;53703;50.326;19.122;2023-02-17T09:34:08;98933.67;;;16.23;44.21
66801;BME280;53703;50.326;19.122;2023-02-17T09:37:02;98938.50;;;16.08;44.45
66801;BME280;53703;50.326;19.122;2023-02-17T09:39:56;98934.82;;;16.05;44.98
66801;BME280;53703;50.326;19.122;2023-02-17T09:42:50;98926.40;;;16.05;44.46
66801;BME280;53703;50.326;19.122;2023-02-17T09:45:47;98922.33;;;16.12;45.07
66801;BME280;53703;50.326;19.122;2023-02-17T09:48:44;98925.42;;;16.21;44.34
66801;BME280;53703;50.326;19.122;2023-02-17T09:51:44;98924.39;;;16.19;44.19
66801;BME280;53703;50.326;19.122;2023-02-17T09:54:48;98923.35;;;16.19;44.69
66801;BME280;53703;50.326;19.122;2023-02-17T09:57:52;98928.59;;;16.16;44.67
66801;BME280;53703;50.326;19.122;2023-02-17T10:00:52;98924.77;;;16.31;45.06
66801;BME280;53703;50.326;19.122;2023-02-17T10:03:51;98929.00;;;16.32;45.57
66801;BME280;53703;50.326;19.122;2023-02-17T10:06:54;98934.99;;;16.27;45.44
66801;BME280;53703;50.326;19.122;2023-02-17T10:09:57;98935.80;;;16.29;45.80
66801;BME280;53703;50.326;19.122;2023-02-17T10:12:58;98936.64;;;16.25;45.71
66801;BME280;53703;50.326;19.122;2023-02-17T10:16:17;98936.68;;;16.31;46.50
66801;BME280;53703;50.326;19.122;2023-02-17T10:19:18;98933.80;;;16.30;45.71
66801;BME280;53703;50.326;19.122;2023-02-17T10:22:18;98932.19;;;16.29;45.57
66801;BME280;53703;50.326;19.122;2023-02-17T10:25:19;98924.98;;;16.40;45.82
66801;BME280;53703;50.326;19.122;2023-02-17T10:28:24;98921.95;;;16.47;45.17
66801;BME280;53703;50.326;19.122;2023-02-17T10:31:36;98915.13;;;16.35;45.43
66801;BME280;53703;50.326;19.122;2023-02-17T10:34:37;98911.52;;;16.43;44.64
66801;BME280;53703;50.326;19.122;2023-02-17T10:37:36;98911.71;;;16.55;44.21
66801;BME280;53703;50.326;19.122;2023-02-17T10:40:32;98910.21;;;16.51;44.36
66801;BME280;53703;50.326;19.122;2023-02-17T10:43:30;98902.61;;;16.54;44.41
66801;BME280;53703;50.326;19.122;2023-02-17T10:46:28;98892.98;;;16.55;43.94
66801;BME280;53703;50.326;19.122;2023-02-17T10:49:24;98885.81;;;16.55;43.86
66801;BME280;53703;50.326;19.122;2023-02-17T10:52:22;98878.39;;;16.60;43.83
66801;BME280;53703;50.326;19.122;2023-02-17T10:55:28;98870.02;;;16.62;43.89
66801;BME280;53703;50.326;19.122;2023-02-17T10:58:30;98866.54;;;16.63;43.73
66801;BME280;53703;50.326;19.122;2023-02-17T11:01:25;98859.05;;;16.67;43.75
66801;BME280;53703;50.326;19.122;2023-02-17T11:04:20;98849.91;;;16.69;43.82
66801;BME280;53703;50.326;19.122;2023-02-17T11:07:16;98845.35;;;16.69;43.69
66801;BME280;53703;50.326;19.122;2023-02-17T11:10:24;98838.83;;;16.74;43.65
66801;BME280;53703;50.326;19.122;2023-02-17T11:13:37;98824.01;;;16.82;43.72
66801;BME280;53703;50.326;19.122;2023-02-17T11:16:38;98813.48;;;16.77;43.53
66801;BME280;53703;50.326;19.122;2023-02-17T11:19:35;98817.11;;;16.83;43.53
66801;BME280;53703;50.326;19.122;2023-02-17T11:22:38;98817.06;;;16.88;44.44
66801;BME280;53703;50.326;19.122;2023-02-17T11:25:32;98817.25;;;16.81;43.93
66801;BME280;53703;50.326;19.122;2023-02-17T11:28:28;98803.02;;;16.86;44.08
66801;BME280;53703;50.326;19.122;2023-02-17T11:31:28;98793.16;;;16.87;43.39
66801;BME280;53703;50.326;19.122;2023-02-17T11:34:25;98791.17;;;16.82;43.65
66801;BME280;53703;50.326;19.122;2023-02-17T11:37:24;98783.14;;;16.98;43.71
66801;BME280;53703;50.326;19.122;2023-02-17T11:40:27;98780.59;;;16.93;43.39
66801;BME280;53703;50.326;19.122;2023-02-17T11:43:21;98782.23;;;16.86;43.66
66801;BME280;53703;50.326;19.122;2023-02-17T11:46:30;98785.73;;;16.84;43.28
66801;BME280;53703;50.326;19.122;2023-02-17T11:50:03;98785.84;;;16.87;43.43
66801;BME280;53703;50.326;19.122;2023-02-17T11:53:17;98786.48;;;16.94;43.38
66801;BME280;53703;50.326;19.122;2023-02-17T11:56:17;98784.43;;;16.92;43.04
66801;BME280;53703;50.326;19.122;2023-02-17T11:59:32;98782.40;;;16.90;43.00
66801;BME280;53703;50.326;19.122;2023-02-17T12:02:43;98776.08;;;17.01;43.37
66801;BME280;53703;50.326;19.122;2023-02-17T12:05:52;98771.34;;;16.98;43.01
66801;BME280;53703;50.326;19.122;2023-02-17T12:09:06;98769.20;;;16.93;43.01
66801;BME280;53703;50.326;19.122;2023-02-17T12:12:08;98764.27;;;16.87;43.07
66801;BME280;53703;50.326;19.122;2023-02-17T12:15:23;98764.08;;;16.96;42.87
66801;BME280;53703;50.326;19.122;2023-02-17T12:18:37;98762.39;;;16.99;43.22
66801;BME280;53703;50.326;19.122;2023-02-17T12:21:43;98759.60;;;16.94;43.46
66801;BME280;53703;50.326;19.122;2023-02-17T12:24:52;98763.11;;;16.93;43.34
66801;BME280;53703;50.326;19.122;2023-02-17T12:28:01;98750.73;;;17.06;42.71
66801;BME280;53703;50.326;19.122;2023-02-17T12:31:05;98752.90;;;16.89;42.93
66801;BME280;53703;50.326;19.122;2023-02-17T12:34:08;98749.46;;;16.86;43.03
66801;BME280;53703;50.326;19.122;2023-02-17T12:37:26;98751.20;;;16.83;43.15
66801;BME280;53703;50.326;19.122;2023-02-17T12:40:32;98743.02;;;16.90;43.19
66801;BME280;53703;50.326;19.122;2023-02-17T12:43:33;98735.92;;;16.94;43.78
66801;BME280;53703;50.326;19.122;2023-02-17T12:46:51;98734.68;;;16.98;44.21
66801;BME280;53703;50.326;19.122;2023-02-17T12:49:50;98728.97;;;16.83;43.89
66801;BME280;53703;50.326;19.122;2023-02-17T12:52:50;98726.30;;;16.78;43.63
66801;BME280;53703;50.326;19.122;2023-02-17T12:55:51;98721.26;;;16.78;43.27
66801;BME280;53703;50.326;19.122;2023-02-17T12:58:48;98716.49;;;16.75;43.30
66801;BME280;53703;50.326;19.122;2023-02-17T13:01:50;98706.48;;;16.74;43.25
66801;BME280;53703;50.326;19.122;2023-02-17T13:04:50;98703.64;;;16.72;43.34
66801;BME280;53703;50.326;19.122;2023-02-17T13:07:48;98694.62;;;16.70;43.55
66801;BME280;53703;50.326;19.122;2023-02-17T13:10:43;98688.76;;;16.67;43.35
66801;BME280;53703;50.326;19.122;2023-02-17T13:13:37;98684.86;;;16.68;43.27
66801;BME280;53703;50.326;19.122;2023-02-17T13:16:52;98678.32;;;16.82;43.64
66801;BME280;53703;50.326;19.122;2023-02-17T13:19:47;98669.35;;;16.87;43.73
66801;BME280;53703;50.326;19.122;2023-02-17T13:22:43;98667.81;;;16.76;43.31
66801;BME280;53703;50.326;19.122;2023-02-17T13:25:37;98657.40;;;16.68;43.20
66801;BME280;53703;50.326;19.122;2023-02-17T13:28:37;98652.66;;;16.71;43.25
66801;BME280;53703;50.326;19.122;2023-02-17T13:31:42;98644.56;;;16.71;43.23
66801;BME280;53703;50.326;19.122;2023-02-17T13:34:47;98638.96;;;16.70;43.21
66801;BME280;53703;50.326;19.122;2023-02-17T13:38:02;98623.65;;;16.65;43.17
66801;BME280;53703;50.326;19.122;2023-02-17T13:41:04;98619.18;;;16.65;43.87
66801;BME280;53703;50.326;19.122;2023-02-17T13:43:59;98612.23;;;16.68;43.91
66801;BME280;53703;50.326;19.122;2023-02-17T13:47:01;98605.35;;;16.66;43.78
66801;BME280;53703;50.326;19.122;2023-02-17T13:49:55;98606.21;;;16.76;44.15
66801;BME280;53703;50.326;19.122;2023-02-17T13:52:49;98602.92;;;16.83;43.92
66801;BME280;53703;50.326;19.122;2023-02-17T13:55:44;98598.35;;;16.66;43.43
66801;BME280;53703;50.326;19.122;2023-02-17T13:58:40;98604.71;;;16.59;43.74
66801;BME280;53703;50.326;19.122;2023-02-17T14:01:36;98597.10;;;16.55;43.77
66801;BME280;53703;50.326;19.122;2023-02-17T14:04:34;98588.08;;;16.56;43.63
66801;BME280;53703;50.326;19.122;2023-02-17T14:07:34;98588.27;;;16.52;43.71
66801;BME280;53703;50.326;19.122;2023-02-17T14:10:28;98590.84;;;16.51;43.66
66801;BME280;53703;50.326;19.122;2023-02-17T14:13:23;98586.73;;;16.51;43.72
66801;BME280;53703;50.326;19.122;2023-02-17T14:16:33;98587.17;;;16.50;43.70
66801;BME280;53703;50.326;19.122;2023-02-17T14:19:27;98577.95;;;16.47;43.75
66801;BME280;53703;50.326;19.122;2023-02-17T14:22:28;98574.06;;;16.46;43.60
66801;BME280;53703;50.326;19.122;2023-02-17T14:25:30;98569.99;;;16.45;43.61
66801;BME280;53703;50.326;19.122;2023-02-17T14:28:26;98570.69;;;16.44;43.69
66801;BME280;53703;50.326;19.122;2023-02-17T14:31:22;98570.91;;;16.58;44.26
66801;BME280;53703;50.326;19.122;2023-02-17T14:34:30;98568.13;;;16.64;43.74
66801;BME280;53703;50.326;19.122;2023-02-17T14:37:26;98556.55;;;16.61;44.42
66801;BME280;53703;50.326;19.122;2023-02-17T14:40:24;98552.04;;;16.63;44.97
66801;BME280;53703;50.326;19.122;2023-02-17T14:43:18;98547.08;;;16.56;45.02
66801;BME280;53703;50.326;19.122;2023-02-17T14:46:12;98541.20;;;16.53;44.41
66801;BME280;53703;50.326;19.122;2023-02-17T14:49:12;98536.63;;;16.47;44.65
66801;BME280;53703;50.326;19.122;2023-02-17T14:52:18;98527.39;;;16.46;44.45
66801;BME280;53703;50.326;19.122;2023-02-17T14:55:26;98525.69;;;16.52;45.23
66801;BME280;53703;50.326;19.122;2023-02-17T14:58:23;98530.21;;;16.51;45.13
66801;BME280;53703;50.326;19.122;2023-02-17T15:01:21;98530.84;;;16.65;45.17
66801;BME280;53703;50.326;19.122;2023-02-17T15:04:15;98526.38;;;16.56;45.42
66801;BME280;53703;50.326;19.122;2023-02-17T15:07:13;98518.41;;;16.53;44.92
66801;BME280;53703;50.326;19.122;2023-02-17T15:10:18;98512.87;;;16.48;44.49
66801;BME280;53703;50.326;19.122;2023-02-17T15:13:16;98510.86;;;16.56;45.34
66801;BME280;53703;50.326;19.122;2023-02-17T15:16:10;98503.84;;;16.50;45.08
66801;BME280;53703;50.326;19.122;2023-02-17T15:19:05;98500.11;;;16.52;44.87
66801;BME280;53703;50.326;19.122;2023-02-17T15:21:59;98494.29;;;16.54;45.01
66801;BME280;53703;50.326;19.122;2023-02-17T15:24:55;98484.35;;;16.42;44.72
66801;BME280;53703;50.326;19.122;2023-02-17T15:27:50;98480.04;;;16.37;44.94
66801;BME280;53703;50.326;19.122;2023-02-17T15:30:47;98465.85;;;16.37;44.52
66801;BME280;53703;50.326;19.122;2023-02-17T15:33:43;98465.20;;;16.39;44.74
66801;BME280;53703;50.326;19.122;2023-02-17T15:36:37;98461.86;;;16.35;44.84